sensor_id;sensor_type;location;lat;lon;timestamp;pressure;altitude;pressure_sealevel;temperature;humidity
61035;BME280;46916;40.564;-7.958;2023-02-19T00:01:13;98263.25;;;11.09;59.10
61035;BME280;46916;40.564;-7.958;2023-02-19T00:03:15;98266.09;;;11.06;59.08
61035;BME280;46916;40.564;-7.958;2023-02-19T00:05:15;98264.22;;;11.08;58.92
61035;BME280;46916;40.564;-7.958;2023-02-19T00:07:16;98259.94;;;11.07;58.94
61035;BME280;46916;40.564;-7.958;2023-02-19T00:09:18;98258.97;;;11.08;58.96
61035;BME280;46916;40.564;-7.958;2023-02-19T00:11:24;98265.78;;;11.10;59.01
61035;BME280;46916;40.564;-7.958;2023-02-19T00:13:25;98266.38;;;11.14;59.09
61035;BME280;46916;40.564;-7.958;2023-02-19T00:15:26;98255.28;;;11.10;59.24
61035;BME280;46916;40.564;-7.958;2023-02-19T00:17:26;98246.47;;;11.11;58.90
61035;BME280;46916;40.564;-7.958;2023-02-19T00:19:27;98249.59;;;11.16;58.80
61035;BME280;46916;40.564;-7.958;2023-02-19T00:21:28;98252.09;;;11.18;58.76
61035;BME280;46916;40.564;-7.958;2023-02-19T00:23:29;98253.78;;;11.19;58.51
61035;BME280;46916;40.564;-7.958;2023-02-19T00:25:30;98253.16;;;11.15;58.64
61035;BME280;46916;40.564;-7.958;2023-02-19T00:27:31;98250.88;;;11.11;58.48
61035;BME280;46916;40.564;-7.958;2023-02-19T00:29:32;98241.91;;;11.02;58.79
61035;BME280;46916;40.564;-7.958;2023-02-19T00:31:34;98245.38;;;11.03;58.51
61035;BME280;46916;40.564;-7.958;2023-02-19T00:33:35;98244.63;;;11.01;58.68
61035;BME280;46916;40.564;-7.958;2023-02-19T00:35:36;98241.31;;;10.99;58.36
61035;BME280;46916;40.564;-7.958;2023-02-19T00:37:37;98237.94;;;10.97;58.22
61035;BME280;46916;40.564;-7.958;2023-02-19T00:39:37;98240.47;;;10.98;58.27
61035;BME280;46916;40.564;-7.958;2023-02-19T00:41:38;98237.84;;;10.98;58.32
61035;BME280;46916;40.564;-7.958;2023-02-19T00:43:38;98240.22;;;11.01;58.02
61035;BME280;46916;40.564;-7.958;2023-02-19T00:45:39;98233.44;;;10.99;58.22
61035;BME280;46916;40.564;-7.958;2023-02-19T00:47:40;98232.00;;;10.95;58.32
61035;BME280;46916;40.564;-7.958;2023-02-19T00:49:41;98233.53;;;10.97;58.28
61035;BME280;46916;40.564;-7.958;2023-02-19T00:51:41;98234.63;;;10.95;58.00
61035;BME280;46916;40.564;-7.958;2023-02-19T00:53:42;98227.47;;;10.97;58.18
61035;BME280;46916;40.564;-7.958;2023-02-19T00:55:43;98232.59;;;10.98;57.95
61035;BME280;46916;40.564;-7.958;2023-02-19T00:57:43;98232.47;;;11.00;57.49
61035;BME280;46916;40.564;-7.958;2023-02-19T00:59:44;98230.56;;;11.02;57.68
61035;BME280;46916;40.564;-7.958;2023-02-19T01:01:45;98233.53;;;10.97;57.44
61035;BME280;46916;40.564;-7.958;2023-02-19T01:03:46;98233.31;;;11.00;57.34
61035;BME280;46916;40.564;-7.958;2023-02-19T01:05:51;98226.28;;;11.01;57.10
61035;BME280;46916;40.564;-7.958;2023-02-19T01:07:52;98230.56;;;11.02;57.10
61035;BME280;46916;40.564;-7.958;2023-02-19T01:09:53;98232.25;;;11.03;56.90
61035;BME280;46916;40.564;-7.958;2023-02-19T01:11:54;98221.66;;;11.04;57.08
61035;BME280;46916;40.564;-7.958;2023-02-19T01:13:58;98224.16;;;11.06;56.58
61035;BME280;46916;40.564;-7.958;2023-02-19T01:18:08;98226.47;;;11.10;56.47
61035;BME280;46916;40.564;-7.958;2023-02-19T01:20:09;98216.69;;;11.12;56.02
61035;BME280;46916;40.564;-7.958;2023-02-19T01:22:09;98210.25;;;11.16;55.97
61035;BME280;46916;40.564;-7.958;2023-02-19T01:24:10;98222.41;;;11.18;56.17
61035;BME280;46916;40.564;-7.958;2023-02-19T01:26:22;98220.88;;;11.15;55.96
61035;BME280;46916;40.564;-7.958;2023-02-19T01:28:23;98212.41;;;11.11;55.96
61035;BME280;46916;40.564;-7.958;2023-02-19T01:30:24;98209.78;;;11.11;56.10
61035;BME280;46916;40.564;-7.958;2023-02-19T01:32:24;98208.41;;;11.06;56.55
61035;BME280;46916;40.564;-7.958;2023-02-19T01:34:25;98202.69;;;11.01;56.54
61035;BME280;46916;40.564;-7.958;2023-02-19T01:36:32;98205.66;;;10.96;57.11
61035;BME280;46916;40.564;-7.958;2023-02-19T01:38:32;98196.81;;;10.86;57.45
61035;BME280;46916;40.564;-7.958;2023-02-19T01:40:34;98200.50;;;10.83;57.18
61035;BME280;46916;40.564;-7.958;2023-02-19T01:42:34;98203.66;;;10.76;57.69
61035;BME280;46916;40.564;-7.958;2023-02-19T01:46:37;98197.94;;;10.71;58.01
61035;BME280;46916;40.564;-7.958;2023-02-19T01:48:38;98180.63;;;10.68;57.85
61035;BME280;46916;40.564;-7.958;2023-02-19T01:50:57;98184.34;;;10.65;57.89
61035;BME280;46916;40.564;-7.958;2023-02-19T01:53:02;98187.78;;;10.66;58.19
61035;BME280;46916;40.564;-7.958;2023-02-19T01:55:07;98183.59;;;10.63;58.09
61035;BME280;46916;40.564;-7.958;2023-02-19T01:57:12;98174.91;;;10.63;57.87
61035;BME280;46916;40.564;-7.958;2023-02-19T01:59:17;98171.88;;;10.56;57.80
61035;BME280;46916;40.564;-7.958;2023-02-19T02:01:18;98178.81;;;10.57;57.53
61035;BME280;46916;40.564;-7.958;2023-02-19T02:03:19;98186.69;;;10.57;57.33
61035;BME280;46916;40.564;-7.958;2023-02-19T02:07:40;98171.06;;;10.56;57.35
61035;BME280;46916;40.564;-7.958;2023-02-19T02:10:00;98166.03;;;10.53;57.79
61035;BME280;46916;40.564;-7.958;2023-02-19T02:12:19;98170.09;;;10.57;57.43
61035;BME280;46916;40.564;-7.958;2023-02-19T02:14:23;98172.41;;;10.61;57.37
61035;BME280;46916;40.564;-7.958;2023-02-19T02:21:10;98176.75;;;10.74;57.09
61035;BME280;46916;40.564;-7.958;2023-02-19T02:23:43;98177.94;;;10.81;56.41
61035;BME280;46916;40.564;-7.958;2023-02-19T02:35:12;98171.59;;;10.72;56.59
61035;BME280;46916;40.564;-7.958;2023-02-19T02:37:19;98163.03;;;10.70;56.43
61035;BME280;46916;40.564;-7.958;2023-02-19T02:39:24;98159.47;;;10.71;56.97
61035;BME280;46916;40.564;-7.958;2023-02-19T02:41:26;98167.31;;;10.71;56.98
61035;BME280;46916;40.564;-7.958;2023-02-19T02:43:27;98163.59;;;10.62;56.90
61035;BME280;46916;40.564;-7.958;2023-02-19T02:45:31;98161.94;;;10.61;57.06
61035;BME280;46916;40.564;-7.958;2023-02-19T02:47:51;98160.56;;;10.56;57.25
61035;BME280;46916;40.564;-7.958;2023-02-19T02:49:54;98164.28;;;10.53;57.25
61035;BME280;46916;40.564;-7.958;2023-02-19T02:52:06;98170.44;;;10.52;57.11
61035;BME280;46916;40.564;-7.958;2023-02-19T02:54:30;98162.91;;;10.48;57.20
61035;BME280;46916;40.564;-7.958;2023-02-19T02:56:53;98156.13;;;10.45;56.91
61035;BME280;46916;40.564;-7.958;2023-02-19T02:58:57;98156.34;;;10.42;57.15
61035;BME280;46916;40.564;-7.958;2023-02-19T03:01:07;98156.72;;;10.49;56.91
61035;BME280;46916;40.564;-7.958;2023-02-19T03:03:29;98149.00;;;10.47;57.00
61035;BME280;46916;40.564;-7.958;2023-02-19T03:05:32;98152.56;;;10.46;57.21
61035;BME280;46916;40.564;-7.958;2023-02-19T03:08:08;98146.84;;;10.41;57.31
61035;BME280;46916;40.564;-7.958;2023-02-19T03:10:12;98154.41;;;10.33;57.15
61035;BME280;46916;40.564;-7.958;2023-02-19T03:12:16;98142.75;;;10.24;57.25
61035;BME280;46916;40.564;-7.958;2023-02-19T03:14:44;98138.28;;;10.26;57.29
61035;BME280;46916;40.564;-7.958;2023-02-19T03:17:12;98143.53;;;10.26;57.37
61035;BME280;46916;40.564;-7.958;2023-02-19T03:19:40;98148.88;;;10.25;57.63
61035;BME280;46916;40.564;-7.958;2023-02-19T03:21:43;98147.41;;;10.21;57.59
61035;BME280;46916;40.564;-7.958;2023-02-19T03:23:46;98137.84;;;10.20;57.57
61035;BME280;46916;40.564;-7.958;2023-02-19T03:26:06;98133.56;;;10.18;57.54
61035;BME280;46916;40.564;-7.958;2023-02-19T03:28:14;98130.13;;;10.18;57.66
61035;BME280;46916;40.564;-7.958;2023-02-19T03:30:22;98139.75;;;10.17;57.66
61035;BME280;46916;40.564;-7.958;2023-02-19T03:32:31;98144.78;;;10.21;57.54
61035;BME280;46916;40.564;-7.958;2023-02-19T03:34:37;98141.88;;;10.25;57.40
61035;BME280;46916;40.564;-7.958;2023-02-19T03:36:45;98139.25;;;10.25;57.47
61035;BME280;46916;40.564;-7.958;2023-02-19T03:39:05;98137.50;;;10.24;57.75
61035;BME280;46916;40.564;-7.958;2023-02-19T03:41:15;98143.66;;;10.25;57.39
61035;BME280;46916;40.564;-7.958;2023-02-19T03:45:46;98131.06;;;10.30;57.25
61035;BME280;46916;40.564;-7.958;2023-02-19T03:47:57;98132.38;;;10.35;57.30
61035;BME280;46916;40.564;-7.958;2023-02-19T03:50:28;98123.56;;;10.36;56.94
61035;BME280;46916;40.564;-7.958;2023-02-19T03:54:50;98138.25;;;10.39;57.04
61035;BME280;46916;40.564;-7.958;2023-02-19T03:57:01;98133.84;;;10.39;57.04
61035;BME280;46916;40.564;-7.958;2023-02-19T04:01:29;98138.69;;;10.33;56.68
61035;BME280;46916;40.564;-7.958;2023-02-19T04:03:33;98147.38;;;10.33;56.75
61035;BME280;46916;40.564;-7.958;2023-02-19T04:05:40;98134.38;;;10.32;56.45
61035;BME280;46916;40.564;-7.958;2023-02-19T04:07:46;98141.19;;;10.34;56.43
61035;BME280;46916;40.564;-7.958;2023-02-19T04:09:51;98142.75;;;10.37;56.56
61035;BME280;46916;40.564;-7.958;2023-02-19T04:11:54;98139.28;;;10.36;56.73
61035;BME280;46916;40.564;-7.958;2023-02-19T04:14:04;98139.06;;;10.39;56.63
61035;BME280;46916;40.564;-7.958;2023-02-19T04:16:09;98137.28;;;10.40;56.25
61035;BME280;46916;40.564;-7.958;2023-02-19T04:18:21;98127.97;;;10.36;56.38
61035;BME280;46916;40.564;-7.958;2023-02-19T04:20:24;98133.13;;;10.37;55.89
61035;BME280;46916;40.564;-7.958;2023-02-19T04:22:27;98129.66;;;10.37;55.90
61035;BME280;46916;40.564;-7.958;2023-02-19T04:24:38;98126.09;;;10.38;56.01
61035;BME280;46916;40.564;-7.958;2023-02-19T04:26:40;98127.75;;;10.39;56.00
61035;BME280;46916;40.564;-7.958;2023-02-19T04:28:42;98129.44;;;10.40;55.73
61035;BME280;46916;40.564;-7.958;2023-02-19T04:30:43;98125.88;;;10.41;55.34
61035;BME280;46916;40.564;-7.958;2023-02-19T04:32:44;98134.22;;;10.46;55.48
61035;BME280;46916;40.564;-7.958;2023-02-19T04:34:45;98125.63;;;10.44;54.87
61035;BME280;46916;40.564;-7.958;2023-02-19T04:36:46;98118.63;;;10.45;54.95
61035;BME280;46916;40.564;-7.958;2023-02-19T04:38:46;98127.53;;;10.42;55.29
61035;BME280;46916;40.564;-7.958;2023-02-19T04:40:47;98127.97;;;10.36;55.14
61035;BME280;46916;40.564;-7.958;2023-02-19T04:42:50;98131.69;;;10.33;55.41
61035;BME280;46916;40.564;-7.958;2023-02-19T04:44:51;98126.53;;;10.32;55.22
61035;BME280;46916;40.564;-7.958;2023-02-19T04:46:52;98130.09;;;10.31;55.25
61035;BME280;46916;40.564;-7.958;2023-02-19T04:48:53;98128.22;;;10.33;55.25
61035;BME280;46916;40.564;-7.958;2023-02-19T04:50:53;98125.91;;;10.28;55.24
61035;BME280;46916;40.564;-7.958;2023-02-19T04:52:54;98133.56;;;10.31;54.94
61035;BME280;46916;40.564;-7.958;2023-02-19T04:54:55;98129.28;;;10.30;55.39
61035;BME280;46916;40.564;-7.958;2023-02-19T04:56:55;98142.03;;;10.35;55.28
61035;BME280;46916;40.564;-7.958;2023-02-19T04:58:56;98149.03;;;10.34;54.83
61035;BME280;46916;40.564;-7.958;2023-02-19T05:00:57;98144.97;;;10.30;55.18
61035;BME280;46916;40.564;-7.958;2023-02-19T05:02:58;98148.22;;;10.34;55.10
61035;BME280;46916;40.564;-7.958;2023-02-19T05:05:00;98135.97;;;10.34;54.82
61035;BME280;46916;40.564;-7.958;2023-02-19T05:07:00;98147.75;;;10.40;54.72
61035;BME280;46916;40.564;-7.958;2023-02-19T05:09:02;98143.25;;;10.42;54.54
61035;BME280;46916;40.564;-7.958;2023-02-19T05:11:04;98143.03;;;10.45;54.38
61035;BME280;46916;40.564;-7.958;2023-02-19T05:13:05;98142.78;;;10.48;54.18
61035;BME280;46916;40.564;-7.958;2023-02-19T05:15:06;98140.78;;;10.52;53.78
61035;BME280;46916;40.564;-7.958;2023-02-19T05:17:07;98138.09;;;10.53;54.09
61035;BME280;46916;40.564;-7.958;2023-02-19T05:19:10;98129.97;;;10.56;53.35
61035;BME280;46916;40.564;-7.958;2023-02-19T05:21:12;98140.13;;;10.61;53.29
61035;BME280;46916;40.564;-7.958;2023-02-19T05:23:14;98137.41;;;10.62;53.38
61035;BME280;46916;40.564;-7.958;2023-02-19T05:25:15;98139.81;;;10.65;53.05
61035;BME280;46916;40.564;-7.958;2023-02-19T05:27:16;98135.06;;;10.71;53.00
61035;BME280;46916;40.564;-7.958;2023-02-19T05:29:17;98140.06;;;10.74;52.81
61035;BME280;46916;40.564;-7.958;2023-02-19T05:31:18;98135.66;;;10.74;52.90
61035;BME280;46916;40.564;-7.958;2023-02-19T05:33:21;98141.38;;;10.79;53.04
61035;BME280;46916;40.564;-7.958;2023-02-19T05:35:21;98144.97;;;10.78;52.57
61035;BME280;46916;40.564;-7.958;2023-02-19T05:37:22;98137.81;;;10.80;52.78
61035;BME280;46916;40.564;-7.958;2023-02-19T05:39:23;98136.63;;;10.84;52.76
61035;BME280;46916;40.564;-7.958;2023-02-19T05:41:26;98125.44;;;10.82;52.61
61035;BME280;46916;40.564;-7.958;2023-02-19T05:43:27;98132.56;;;10.80;52.60
61035;BME280;46916;40.564;-7.958;2023-02-19T05:45:28;98125.09;;;10.87;52.82
61035;BME280;46916;40.564;-7.958;2023-02-19T05:47:28;98129.25;;;10.89;52.66
61035;BME280;46916;40.564;-7.958;2023-02-19T05:49:29;98119.75;;;10.88;52.27
61035;BME280;46916;40.564;-7.958;2023-02-19T05:51:30;98128.09;;;10.94;52.53
61035;BME280;46916;40.564;-7.958;2023-02-19T05:53:31;98129.78;;;10.95;52.30
61035;BME280;46916;40.564;-7.958;2023-02-19T05:55:35;98115.84;;;10.94;52.26
61035;BME280;46916;40.564;-7.958;2023-02-19T05:57:46;98120.97;;;10.96;52.59
61035;BME280;46916;40.564;-7.958;2023-02-19T05:59:47;98127.63;;;11.00;52.29
61035;BME280;46916;40.564;-7.958;2023-02-19T06:01:49;98122.63;;;10.97;51.99
61035;BME280;46916;40.564;-7.958;2023-02-19T06:03:50;98124.19;;;10.99;52.26
61035;BME280;46916;40.564;-7.958;2023-02-19T06:05:51;98122.63;;;10.97;52.22
61035;BME280;46916;40.564;-7.958;2023-02-19T06:07:51;98129.66;;;10.96;52.00
61035;BME280;46916;40.564;-7.958;2023-02-19T06:09:52;98134.75;;;10.98;52.01
61035;BME280;46916;40.564;-7.958;2023-02-19T06:11:53;98125.59;;;10.92;51.87
61035;BME280;46916;40.564;-7.958;2023-02-19T06:13:53;98132.50;;;10.93;51.95
61035;BME280;46916;40.564;-7.958;2023-02-19T06:15:54;98124.97;;;10.88;52.47
61035;BME280;46916;40.564;-7.958;2023-02-19T06:17:55;98130.34;;;10.87;52.37
61035;BME280;46916;40.564;-7.958;2023-02-19T06:19:56;98141.78;;;10.86;52.45
61035;BME280;46916;40.564;-7.958;2023-02-19T06:21:56;98132.34;;;10.83;52.97
61035;BME280;46916;40.564;-7.958;2023-02-19T06:23:57;98133.66;;;10.78;52.85
61035;BME280;46916;40.564;-7.958;2023-02-19T06:28:13;98136.44;;;10.63;53.38
61035;BME280;46916;40.564;-7.958;2023-02-19T06:30:13;98133.00;;;10.63;53.35
61035;BME280;46916;40.564;-7.958;2023-02-19T06:32:14;98133.94;;;10.62;53.53
61035;BME280;46916;40.564;-7.958;2023-02-19T06:34:15;98135.00;;;10.59;53.91
61035;BME280;46916;40.564;-7.958;2023-02-19T06:36:18;98134.28;;;10.57;53.84
61035;BME280;46916;40.564;-7.958;2023-02-19T06:38:22;98129.97;;;10.56;54.01
61035;BME280;46916;40.564;-7.958;2023-02-19T06:40:23;98125.19;;;10.50;54.17
61035;BME280;46916;40.564;-7.958;2023-02-19T06:42:23;98136.91;;;10.57;54.17
61035;BME280;46916;40.564;-7.958;2023-02-19T06:44:24;98137.00;;;10.56;53.91
61035;BME280;46916;40.564;-7.958;2023-02-19T06:46:25;98135.84;;;10.60;54.11
61035;BME280;46916;40.564;-7.958;2023-02-19T06:48:27;98138.34;;;10.61;54.40
61035;BME280;46916;40.564;-7.958;2023-02-19T06:50:28;98140.25;;;10.59;54.14
61035;BME280;46916;40.564;-7.958;2023-02-19T06:52:29;98137.50;;;10.61;54.14
61035;BME280;46916;40.564;-7.958;2023-02-19T06:54:29;98139.91;;;10.64;54.06
61035;BME280;46916;40.564;-7.958;2023-02-19T06:56:33;98143.34;;;10.64;53.95
61035;BME280;46916;40.564;-7.958;2023-02-19T06:58:34;98133.34;;;10.58;53.70
61035;BME280;46916;40.564;-7.958;2023-02-19T07:00:35;98130.22;;;10.53;53.63
61035;BME280;46916;40.564;-7.958;2023-02-19T07:02:35;98135.47;;;10.53;53.75
61035;BME280;46916;40.564;-7.958;2023-02-19T07:04:37;98126.75;;;10.53;54.16
61035;BME280;46916;40.564;-7.958;2023-02-19T07:06:37;98144.03;;;10.55;54.11
61035;BME280;46916;40.564;-7.958;2023-02-19T07:08:38;98140.09;;;10.50;54.05
61035;BME280;46916;40.564;-7.958;2023-02-19T07:10:39;98139.00;;;10.52;54.30
61035;BME280;46916;40.564;-7.958;2023-02-19T07:12:39;98142.25;;;10.56;53.86
61035;BME280;46916;40.564;-7.958;2023-02-19T07:14:40;98145.06;;;10.53;54.13
61035;BME280;46916;40.564;-7.958;2023-02-19T07:16:41;98144.78;;;10.57;54.42
61035;BME280;46916;40.564;-7.958;2023-02-19T07:18:42;98148.31;;;10.56;54.36
61035;BME280;46916;40.564;-7.958;2023-02-19T07:20:42;98143.06;;;10.56;54.26
61035;BME280;46916;40.564;-7.958;2023-02-19T07:22:43;98150.09;;;10.56;53.96
61035;BME280;46916;40.564;-7.958;2023-02-19T07:24:44;98149.28;;;10.55;54.03
61035;BME280;46916;40.564;-7.958;2023-02-19T07:26:44;98151.19;;;10.53;54.45
61035;BME280;46916;40.564;-7.958;2023-02-19T07:28:49;98149.28;;;10.55;54.18
61035;BME280;46916;40.564;-7.958;2023-02-19T07:30:50;98143.31;;;10.53;53.85
61035;BME280;46916;40.564;-7.958;2023-02-19T07:32:51;98150.94;;;10.56;54.13
61035;BME280;46916;40.564;-7.958;2023-02-19T07:34:51;98149.88;;;10.59;53.91
61035;BME280;46916;40.564;-7.958;2023-02-19T07:36:52;98149.06;;;10.58;53.57
61035;BME280;46916;40.564;-7.958;2023-02-19T07:38:57;98147.38;;;10.57;53.33
61035;BME280;46916;40.564;-7.958;2023-02-19T07:41:00;98147.97;;;10.61;53.50
61035;BME280;46916;40.564;-7.958;2023-02-19T07:43:01;98143.47;;;10.63;53.45
61035;BME280;46916;40.564;-7.958;2023-02-19T07:45:02;98148.38;;;10.68;53.29
61035;BME280;46916;40.564;-7.958;2023-02-19T07:47:02;98145.41;;;10.72;53.21
61035;BME280;46916;40.564;-7.958;2023-02-19T07:49:03;98161.53;;;10.79;52.40
61035;BME280;46916;40.564;-7.958;2023-02-19T07:51:06;98162.34;;;10.79;52.27
61035;BME280;46916;40.564;-7.958;2023-02-19T07:53:07;98161.13;;;10.72;52.67
61035;BME280;46916;40.564;-7.958;2023-02-19T07:55:08;98164.69;;;10.71;52.72
61035;BME280;46916;40.564;-7.958;2023-02-19T07:57:08;98164.81;;;10.70;53.00
61035;BME280;46916;40.564;-7.958;2023-02-19T07:59:09;98158.84;;;10.68;52.89
61035;BME280;46916;40.564;-7.958;2023-02-19T08:01:16;98159.81;;;10.66;52.97
61035;BME280;46916;40.564;-7.958;2023-02-19T08:03:17;98155.53;;;10.65;53.52
61035;BME280;46916;40.564;-7.958;2023-02-19T08:05:17;98154.06;;;10.61;53.72
61035;BME280;46916;40.564;-7.958;2023-02-19T08:07:18;98157.19;;;10.66;53.14
61035;BME280;46916;40.564;-7.958;2023-02-19T08:09:19;98171.00;;;10.69;53.66
61035;BME280;46916;40.564;-7.958;2023-02-19T08:11:19;98150.38;;;10.64;53.36
61035;BME280;46916;40.564;-7.958;2023-02-19T08:13:38;98164.31;;;10.64;53.58
61035;BME280;46916;40.564;-7.958;2023-02-19T08:15:39;98170.16;;;10.68;53.54
61035;BME280;46916;40.564;-7.958;2023-02-19T08:17:39;98175.31;;;10.70;53.65
61035;BME280;46916;40.564;-7.958;2023-02-19T08:19:40;98171.25;;;10.65;53.91
61035;BME280;46916;40.564;-7.958;2023-02-19T08:21:41;98171.94;;;10.68;53.59
61035;BME280;46916;40.564;-7.958;2023-02-19T08:23:42;98188.28;;;10.71;53.87
61035;BME280;46916;40.564;-7.958;2023-02-19T08:25:43;98189.13;;;10.72;53.84
61035;BME280;46916;40.564;-7.958;2023-02-19T08:27:43;98181.25;;;10.72;53.45
61035;BME280;46916;40.564;-7.958;2023-02-19T08:29:45;98190.78;;;10.73;53.81
61035;BME280;46916;40.564;-7.958;2023-02-19T08:31:46;98184.22;;;10.67;53.71
61035;BME280;46916;40.564;-7.958;2023-02-19T08:33:46;98186.97;;;10.65;53.80
61035;BME280;46916;40.564;-7.958;2023-02-19T08:35:47;98195.66;;;10.66;54.01
61035;BME280;46916;40.564;-7.958;2023-02-19T08:37:48;98206.97;;;10.66;54.47
61035;BME280;46916;40.564;-7.958;2023-02-19T08:39:49;98187.78;;;10.66;54.60
61035;BME280;46916;40.564;-7.958;2023-02-19T08:41:49;98196.97;;;10.72;54.22
61035;BME280;46916;40.564;-7.958;2023-02-19T08:43:50;98199.47;;;10.73;54.45
61035;BME280;46916;40.564;-7.958;2023-02-19T08:45:52;98195.31;;;10.71;55.02
61035;BME280;46916;40.564;-7.958;2023-02-19T08:47:53;98196.16;;;10.71;54.55
61035;BME280;46916;40.564;-7.958;2023-02-19T08:49:54;98194.56;;;10.69;55.10
61035;BME280;46916;40.564;-7.958;2023-02-19T08:51:55;98187.78;;;10.66;54.60
61035;BME280;46916;40.564;-7.958;2023-02-19T08:53:55;98184.56;;;10.62;54.62
61035;BME280;46916;40.564;-7.958;2023-02-19T08:55:56;98199.31;;;10.63;54.64
61035;BME280;46916;40.564;-7.958;2023-02-19T08:57:57;98194.06;;;10.63;54.10
61035;BME280;46916;40.564;-7.958;2023-02-19T08:59:57;98185.38;;;10.63;53.88
61035;BME280;46916;40.564;-7.958;2023-02-19T09:01:59;98180.97;;;10.63;54.29
61035;BME280;46916;40.564;-7.958;2023-02-19T09:04:00;98188.50;;;10.68;53.70
61035;BME280;46916;40.564;-7.958;2023-02-19T09:06:00;98196.97;;;10.72;54.14
61035;BME280;46916;40.564;-7.958;2023-02-19T09:08:01;98198.63;;;10.73;54.03
61035;BME280;46916;40.564;-7.958;2023-02-19T09:10:02;98183.66;;;10.75;54.02
61035;BME280;46916;40.564;-7.958;2023-02-19T09:12:08;98195.47;;;10.80;54.66
61035;BME280;46916;40.564;-7.958;2023-02-19T09:14:09;98188.44;;;10.81;53.92
61035;BME280;46916;40.564;-7.958;2023-02-19T09:16:10;98191.06;;;10.81;53.74
61035;BME280;46916;40.564;-7.958;2023-02-19T09:18:11;98190.00;;;10.83;53.46
61035;BME280;46916;40.564;-7.958;2023-02-19T09:20:12;98191.78;;;10.83;53.53
61035;BME280;46916;40.564;-7.958;2023-02-19T09:22:12;98180.56;;;10.81;54.17
61035;BME280;46916;40.564;-7.958;2023-02-19T09:24:13;98183.94;;;10.83;54.10
61035;BME280;46916;40.564;-7.958;2023-02-19T09:26:13;98186.34;;;10.86;53.70
61035;BME280;46916;40.564;-7.958;2023-02-19T09:28:14;98183.72;;;10.86;54.03
61035;BME280;46916;40.564;-7.958;2023-02-19T09:30:16;98182.16;;;10.83;53.76
61035;BME280;46916;40.564;-7.958;2023-02-19T09:32:17;98177.50;;;10.87;53.70
61035;BME280;46916;40.564;-7.958;2023-02-19T09:34:17;98193.03;;;10.90;54.07
61035;BME280;46916;40.564;-7.958;2023-02-19T09:36:18;98181.59;;;10.91;53.98
61035;BME280;46916;40.564;-7.958;2023-02-19T09:38:19;98181.59;;;10.91;53.77
61035;BME280;46916;40.564;-7.958;2023-02-19T09:40:20;98181.34;;;10.94;54.20
61035;BME280;46916;40.564;-7.958;2023-02-19T09:42:23;98181.34;;;10.94;54.08
61035;BME280;46916;40.564;-7.958;2023-02-19T09:44:32;98176.94;;;10.95;53.92
61035;BME280;46916;40.564;-7.958;2023-02-19T09:46:46;98188.06;;;10.98;54.37
61035;BME280;46916;40.564;-7.958;2023-02-19T09:48:48;98186.13;;;11.00;54.35
61035;BME280;46916;40.564;-7.958;2023-02-19T09:50:50;98189.38;;;11.04;54.13
61035;BME280;46916;40.564;-7.958;2023-02-19T09:52:57;98186.53;;;11.07;54.30
61035;BME280;46916;40.564;-7.958;2023-02-19T09:55:12;98187.13;;;11.10;54.57
61035;BME280;46916;40.564;-7.958;2023-02-19T09:57:16;98191.69;;;11.20;54.03
61035;BME280;46916;40.564;-7.958;2023-02-19T09:59:26;98193.56;;;11.18;54.00
61035;BME280;46916;40.564;-7.958;2023-02-19T10:01:31;98190.84;;;11.19;54.03
61035;BME280;46916;40.564;-7.958;2023-02-19T10:03:37;98191.69;;;11.20;54.00
61035;BME280;46916;40.564;-7.958;2023-02-19T10:05:40;98183.91;;;11.18;54.07
61035;BME280;46916;40.564;-7.958;2023-02-19T10:07:47;98190.50;;;11.24;53.91
61035;BME280;46916;40.564;-7.958;2023-02-19T10:11:57;98185.03;;;11.27;55.06
61035;BME280;46916;40.564;-7.958;2023-02-19T10:16:04;98182.91;;;11.32;55.66
61035;BME280;46916;40.564;-7.958;2023-02-19T10:18:06;98180.28;;;11.32;57.25
61035;BME280;46916;40.564;-7.958;2023-02-19T10:20:19;98185.50;;;11.32;58.78
61035;BME280;46916;40.564;-7.958;2023-02-19T10:22:24;98189.56;;;11.36;59.73
61035;BME280;46916;40.564;-7.958;2023-02-19T10:24:26;98188.75;;;11.35;60.62
61035;BME280;46916;40.564;-7.958;2023-02-19T10:26:28;98180.03;;;11.35;61.44
61035;BME280;46916;40.564;-7.958;2023-02-19T10:28:34;98183.16;;;11.40;61.99
61035;BME280;46916;40.564;-7.958;2023-02-19T10:30:35;98177.06;;;11.39;62.31
61035;BME280;46916;40.564;-7.958;2023-02-19T10:32:36;98181.84;;;11.46;62.74
61035;BME280;46916;40.564;-7.958;2023-02-19T10:34:41;98175.53;;;11.48;63.34
61035;BME280;46916;40.564;-7.958;2023-02-19T10:36:42;98176.13;;;11.52;63.06
61035;BME280;46916;40.564;-7.958;2023-02-19T10:38:46;98182.81;;;11.56;63.08
61035;BME280;46916;40.564;-7.958;2023-02-19T10:40:47;98177.31;;;11.59;63.43
61035;BME280;46916;40.564;-7.958;2023-02-19T10:42:50;98178.66;;;11.64;63.22
61035;BME280;46916;40.564;-7.958;2023-02-19T10:45:01;98178.91;;;11.73;63.61
61035;BME280;46916;40.564;-7.958;2023-02-19T10:47:03;98182.81;;;11.78;63.88
61035;BME280;46916;40.564;-7.958;2023-02-19T10:49:16;98185.13;;;11.83;64.15
61035;BME280;46916;40.564;-7.958;2023-02-19T10:51:24;98185.47;;;11.89;64.60
61035;BME280;46916;40.564;-7.958;2023-02-19T10:56:34;98186.09;;;12.04;64.22
61035;BME280;46916;40.564;-7.958;2023-02-19T10:58:38;98178.22;;;12.04;64.28
61035;BME280;46916;40.564;-7.958;2023-02-19T11:00:41;98174.38;;;12.08;64.18
61035;BME280;46916;40.564;-7.958;2023-02-19T11:02:43;98181.06;;;12.12;64.30
61035;BME280;46916;40.564;-7.958;2023-02-19T11:07:18;98173.75;;;12.16;64.32
61035;BME280;46916;40.564;-7.958;2023-02-19T11:09:35;98172.69;;;12.19;64.48
61035;BME280;46916;40.564;-7.958;2023-02-19T11:11:38;98176.75;;;12.23;64.68
61035;BME280;46916;40.564;-7.958;2023-02-19T11:13:40;98172.56;;;12.20;64.49
61035;BME280;46916;40.564;-7.958;2023-02-19T11:15:42;98174.94;;;12.23;64.54
61035;BME280;46916;40.564;-7.958;2023-02-19T11:17:43;98178.41;;;12.24;64.26
61035;BME280;46916;40.564;-7.958;2023-02-19T11:19:44;98179.97;;;12.26;64.74
61035;BME280;46916;40.564;-7.958;2023-02-19T11:21:48;98177.19;;;12.28;64.76
61035;BME280;46916;40.564;-7.958;2023-02-19T11:23:49;98176.28;;;12.29;64.66
61035;BME280;46916;40.564;-7.958;2023-02-19T11:25:51;98176.81;;;12.32;64.73